sensor_id;sensor_type;location;lat;lon;timestamp;pressure;altitude;pressure_sealevel;temperature;humidity
46392;BME280;32098;49.448;7.904;2023-07-28T00:01:52;97439.03;;;16.05;92.37
46392;BME280;32098;49.448;7.904;2023-07-28T00:04:19;97438.28;;;15.99;92.15
46392;BME280;32098;49.448;7.904;2023-07-28T00:06:46;97452.19;;;16.06;92.25
46392;BME280;32098;49.448;7.904;2023-07-28T00:09:12;97449.00;;;16.04;92.42
46392;BME280;32098;49.448;7.904;2023-07-28T00:11:39;97448.13;;;16.09;91.91
46392;BME280;32098;49.448;7.904;2023-07-28T00:14:05;97448.69;;;16.11;91.86
46392;BME280;32098;49.448;7.904;2023-07-28T00:16:33;97448.13;;;16.09;92.06
46392;BME280;32098;49.448;7.904;2023-07-28T00:19:00;97441.38;;;16.11;91.95
46392;BME280;32098;49.448;7.904;2023-07-28T00:21:27;97441.78;;;16.00;92.33
46392;BME280;32098;49.448;7.904;2023-07-28T00:23:54;97440.91;;;16.04;92.26
46392;BME280;32098;49.448;7.904;2023-07-28T00:26:21;97440.41;;;16.02;92.34
46392;BME280;32098;49.448;7.904;2023-07-28T00:28:47;97439.06;;;16.00;92.63
46392;BME280;32098;49.448;7.904;2023-07-28T00:31:14;97433.66;;;16.05;92.33
46392;BME280;32098;49.448;7.904;2023-07-28T00:33:40;97432.06;;;15.99;92.40
46392;BME280;32098;49.448;7.904;2023-07-28T00:36:08;97431.81;;;16.00;92.68
46392;BME280;32098;49.448;7.904;2023-07-28T00:38:35;97434.50;;;16.00;92.72
46392;BME280;32098;49.448;7.904;2023-07-28T00:41:01;97425.84;;;16.03;92.66
46392;BME280;32098;49.448;7.904;2023-07-28T00:43:28;97427.69;;;16.08;92.38
46392;BME280;32098;49.448;7.904;2023-07-28T00:45:54;97422.09;;;15.99;92.23
46392;BME280;32098;49.448;7.904;2023-07-28T00:48:21;97430.94;;;16.05;92.40
46392;BME280;32098;49.448;7.904;2023-07-28T00:50:49;97427.97;;;16.06;92.36
46392;BME280;32098;49.448;7.904;2023-07-28T00:53:16;97433.66;;;16.05;92.41
46392;BME280;32098;49.448;7.904;2023-07-28T00:55:42;97414.03;;;15.99;92.10
46392;BME280;32098;49.448;7.904;2023-07-28T00:58:09;97422.31;;;16.08;91.96
46392;BME280;32098;49.448;7.904;2023-07-28T01:00:36;97429.28;;;16.09;91.72
46392;BME280;32098;49.448;7.904;2023-07-28T01:03:03;97429.59;;;16.07;91.73
46392;BME280;32098;49.448;7.904;2023-07-28T01:05:47;97431.81;;;16.00;91.91
46392;BME280;32098;49.448;7.904;2023-07-28T01:08:20;97440.41;;;16.02;92.25
46392;BME280;32098;49.448;7.904;2023-07-28T01:10:48;97436.63;;;16.03;92.20
46392;BME280;32098;49.448;7.904;2023-07-28T01:13:15;97429.28;;;16.09;91.84
46392;BME280;32098;49.448;7.904;2023-07-28T01:15:41;97440.69;;;16.01;92.05
46392;BME280;32098;49.448;7.904;2023-07-28T01:18:08;97439.03;;;16.05;92.13
46392;BME280;32098;49.448;7.904;2023-07-28T01:20:37;97437.41;;;16.04;92.20
46392;BME280;32098;49.448;7.904;2023-07-28T01:23:24;97433.66;;;16.05;92.37
46392;BME280;32098;49.448;7.904;2023-07-28T01:26:09;97436.94;;;15.97;92.59
46392;BME280;32098;49.448;7.904;2023-07-28T01:28:39;97433.75;;;15.95;92.80
46392;BME280;32098;49.448;7.904;2023-07-28T01:31:07;97434.53;;;15.95;92.94
46392;BME280;32098;49.448;7.904;2023-07-28T01:33:34;97431.28;;;15.98;92.71
46392;BME280;32098;49.448;7.904;2023-07-28T01:36:00;97429.63;;;16.02;92.41
46392;BME280;32098;49.448;7.904;2023-07-28T01:38:28;97431.00;;;16.00;92.52
46392;BME280;32098;49.448;7.904;2023-07-28T01:40:55;97428.88;;;15.97;93.03
46392;BME280;32098;49.448;7.904;2023-07-28T01:43:21;97419.16;;;16.01;92.79
46392;BME280;32098;49.448;7.904;2023-07-28T01:45:48;97420.78;;;15.97;93.04
46392;BME280;32098;49.448;7.904;2023-07-28T01:48:14;97415.97;;;15.94;93.30
46392;BME280;32098;49.448;7.904;2023-07-28T01:50:41;97416.56;;;15.91;93.44
46392;BME280;32098;49.448;7.904;2023-07-28T01:53:07;97417.16;;;15.83;94.49
46392;BME280;32098;49.448;7.904;2023-07-28T01:55:35;97415.75;;;15.90;94.03
46392;BME280;32098;49.448;7.904;2023-07-28T01:58:02;97416.56;;;15.91;93.90
46392;BME280;32098;49.448;7.904;2023-07-28T02:00:29;97413.56;;;15.92;93.69
46392;BME280;32098;49.448;7.904;2023-07-28T02:02:56;97416.09;;;15.84;94.03
46392;BME280;32098;49.448;7.904;2023-07-28T02:05:24;97417.13;;;15.88;94.29
46392;BME280;32098;49.448;7.904;2023-07-28T02:07:51;97415.44;;;15.92;93.99
46392;BME280;32098;49.448;7.904;2023-07-28T02:10:18;97421.97;;;15.86;94.57
46392;BME280;32098;49.448;7.904;2023-07-28T02:12:44;97414.13;;;15.89;94.33
46392;BME280;32098;49.448;7.904;2023-07-28T02:15:11;97412.53;;;15.88;94.55
46392;BME280;32098;49.448;7.904;2023-07-28T02:17:38;97372.38;;;15.63;94.54
46392;BME280;32098;49.448;7.904;2023-07-28T02:20:05;97403.66;;;15.88;94.70
46392;BME280;32098;49.448;7.904;2023-07-28T02:22:31;97406.91;;;15.85;94.67
46392;BME280;32098;49.448;7.904;2023-07-28T02:24:58;97409.31;;;15.86;94.67
46392;BME280;32098;49.448;7.904;2023-07-28T02:27:28;97412.28;;;15.85;94.45
46392;BME280;32098;49.448;7.904;2023-07-28T02:29:55;97411.22;;;15.86;94.64
46392;BME280;32098;49.448;7.904;2023-07-28T02:32:21;97412.25;;;15.90;94.44
46392;BME280;32098;49.448;7.904;2023-07-28T02:34:48;97411.97;;;15.91;94.35
46392;BME280;32098;49.448;7.904;2023-07-28T02:37:15;97405.47;;;15.92;94.23
46392;BME280;32098;49.448;7.904;2023-07-28T02:39:43;97409.59;;;15.85;94.71
46392;BME280;32098;49.448;7.904;2023-07-28T02:42:10;97401.47;;;15.90;94.44
46392;BME280;32098;49.448;7.904;2023-07-28T02:44:37;97400.19;;;15.82;94.61
46392;BME280;32098;49.448;7.904;2023-07-28T02:47:03;97404.47;;;15.88;94.67
46392;BME280;32098;49.448;7.904;2023-07-28T02:49:30;97405.78;;;15.91;94.36
46392;BME280;32098;49.448;7.904;2023-07-28T02:51:56;97403.91;;;15.91;94.33
46392;BME280;32098;49.448;7.904;2023-07-28T02:54:24;97403.09;;;15.91;94.16
46392;BME280;32098;49.448;7.904;2023-07-28T02:56:51;97403.34;;;15.89;94.30
46392;BME280;32098;49.448;7.904;2023-07-28T02:59:18;97412.75;;;15.92;94.36
46392;BME280;32098;49.448;7.904;2023-07-28T03:01:45;97413.34;;;15.89;94.20
46392;BME280;32098;49.448;7.904;2023-07-28T03:04:12;97419.28;;;15.86;94.44
46392;BME280;32098;49.448;7.904;2023-07-28T03:07:04;97414.88;;;15.95;93.87
46392;BME280;32098;49.448;7.904;2023-07-28T03:09:31;97416.59;;;15.86;94.43
46392;BME280;32098;49.448;7.904;2023-07-28T03:12:00;97412.06;;;15.81;94.52
46392;BME280;32098;49.448;7.904;2023-07-28T03:14:27;97411.53;;;15.79;95.01
46392;BME280;32098;49.448;7.904;2023-07-28T03:16:55;97402.13;;;15.77;95.25
46392;BME280;32098;49.448;7.904;2023-07-28T03:19:22;97399.75;;;15.70;95.37
46392;BME280;32098;49.448;7.904;2023-07-28T03:21:49;97400.56;;;15.71;95.25
46392;BME280;32098;49.448;7.904;2023-07-28T03:24:15;97407.47;;;15.82;95.12
46392;BME280;32098;49.448;7.904;2023-07-28T03:26:42;97404.22;;;15.85;94.82
46392;BME280;32098;49.448;7.904;2023-07-28T03:29:08;97411.78;;;15.83;94.97
46392;BME280;32098;49.448;7.904;2023-07-28T03:31:35;97413.94;;;15.81;94.70
46392;BME280;32098;49.448;7.904;2023-07-28T03:34:03;97410.69;;;15.84;94.74
46392;BME280;32098;49.448;7.904;2023-07-28T03:36:30;97400.56;;;15.71;95.42
46392;BME280;32098;49.448;7.904;2023-07-28T03:38:58;97412.94;;;15.72;95.63
46392;BME280;32098;49.448;7.904;2023-07-28T03:41:25;97412.63;;;15.78;95.48
46392;BME280;32098;49.448;7.904;2023-07-28T03:43:51;97412.88;;;15.77;95.56
46392;BME280;32098;49.448;7.904;2023-07-28T03:46:18;97412.84;;;15.82;95.25
46392;BME280;32098;49.448;7.904;2023-07-28T03:48:45;97418.81;;;15.79;95.46
46392;BME280;32098;49.448;7.904;2023-07-28T03:51:12;97405.31;;;15.84;95.06
46392;BME280;32098;49.448;7.904;2023-07-28T03:53:39;97418.22;;;15.82;95.13
46392;BME280;32098;49.448;7.904;2023-07-28T03:56:05;97411.47;;;15.84;95.16
46392;BME280;32098;49.448;7.904;2023-07-28T03:58:32;97420.66;;;15.83;95.12
46392;BME280;32098;49.448;7.904;2023-07-28T04:00:59;97411.25;;;15.81;95.26
46392;BME280;32098;49.448;7.904;2023-07-28T04:03:25;97419.59;;;15.79;95.46
46392;BME280;32098;49.448;7.904;2023-07-28T04:05:52;97414.03;;;15.71;95.95
46392;BME280;32098;49.448;7.904;2023-07-28T04:08:18;97409.13;;;15.78;95.96
46392;BME280;32098;49.448;7.904;2023-07-28T04:10:45;97415.66;;;15.67;96.38
46392;BME280;32098;49.448;7.904;2023-07-28T04:13:12;97418.91;;;15.69;96.61
46392;BME280;32098;49.448;7.904;2023-07-28T04:15:38;97423.69;;;15.72;96.39
46392;BME280;32098;49.448;7.904;2023-07-28T04:18:06;97422.09;;;15.71;96.37
46392;BME280;32098;49.448;7.904;2023-07-28T04:20:33;97434.41;;;15.77;96.15
46392;BME280;32098;49.448;7.904;2023-07-28T04:23:00;97439.53;;;15.78;95.79
46392;BME280;32098;49.448;7.904;2023-07-28T04:25:31;97445.97;;;15.82;95.67
46392;BME280;32098;49.448;7.904;2023-07-28T04:27:58;97448.69;;;15.77;95.76
46392;BME280;32098;49.448;7.904;2023-07-28T04:30:24;97448.41;;;15.84;95.70
46392;BME280;32098;49.448;7.904;2023-07-28T04:32:51;97455.38;;;15.85;95.58
46392;BME280;32098;49.448;7.904;2023-07-28T04:35:23;97445.97;;;15.82;95.92
46392;BME280;32098;49.448;7.904;2023-07-28T04:38:02;97455.38;;;15.85;96.01
46392;BME280;32098;49.448;7.904;2023-07-28T04:40:53;97460.19;;;15.88;95.78
46392;BME280;32098;49.448;7.904;2023-07-28T04:43:24;97458.56;;;15.87;95.88
46392;BME280;32098;49.448;7.904;2023-07-28T04:45:54;97462.31;;;15.91;95.88
46392;BME280;32098;49.448;7.904;2023-07-28T04:48:22;97468.22;;;15.93;95.75
46392;BME280;32098;49.448;7.904;2023-07-28T04:50:49;97467.66;;;15.96;95.71
46392;BME280;32098;49.448;7.904;2023-07-28T04:53:16;97467.72;;;15.91;95.74
46392;BME280;32098;49.448;7.904;2023-07-28T04:55:56;97469.59;;;15.90;95.80
46392;BME280;32098;49.448;7.904;2023-07-28T04:58:22;97469.31;;;15.92;96.07
46392;BME280;32098;49.448;7.904;2023-07-28T05:00:51;97470.63;;;15.94;95.94
46392;BME280;32098;49.448;7.904;2023-07-28T05:03:18;97467.66;;;15.96;95.80
46392;BME280;32098;49.448;7.904;2023-07-28T05:05:54;97473.06;;;15.96;96.13
46392;BME280;32098;49.448;7.904;2023-07-28T05:08:21;97470.13;;;15.92;96.52
46392;BME280;32098;49.448;7.904;2023-07-28T05:10:48;97477.34;;;15.97;96.45
46392;BME280;32098;49.448;7.904;2023-07-28T05:13:14;97476.53;;;15.96;96.51
46392;BME280;32098;49.448;7.904;2023-07-28T05:15:49;97471.41;;;16.00;96.40
46392;BME280;32098;49.448;7.904;2023-07-28T05:18:28;97472.47;;;15.99;96.41
46392;BME280;32098;49.448;7.904;2023-07-28T05:21:13;97468.94;;;16.03;96.26
46392;BME280;32098;49.448;7.904;2023-07-28T05:23:40;97477.25;;;16.07;96.22
46392;BME280;32098;49.448;7.904;2023-07-28T05:26:07;97474.56;;;16.07;96.25
46392;BME280;32098;49.448;7.904;2023-07-28T05:28:34;97466.53;;;16.02;96.15
46392;BME280;32098;49.448;7.904;2023-07-28T05:31:05;97467.00;;;16.09;96.08
46392;BME280;32098;49.448;7.904;2023-07-28T05:33:33;97472.69;;;16.07;96.04
46392;BME280;32098;49.448;7.904;2023-07-28T05:36:05;97476.69;;;16.10;95.93
46392;BME280;32098;49.448;7.904;2023-07-28T05:38:33;97477.22;;;16.12;95.72
46392;BME280;32098;49.448;7.904;2023-07-28T05:41:00;97478.59;;;16.09;95.41
46392;BME280;32098;49.448;7.904;2023-07-28T05:43:27;97475.13;;;16.04;95.34
46392;BME280;32098;49.448;7.904;2023-07-28T05:45:57;97475.06;;;16.09;95.73
46392;BME280;32098;49.448;7.904;2023-07-28T05:48:25;97468.41;;;16.01;96.26
46392;BME280;32098;49.448;7.904;2023-07-28T05:50:52;97465.50;;;15.98;97.14
46392;BME280;32098;49.448;7.904;2023-07-28T05:53:23;97476.25;;;15.98;97.61
46392;BME280;32098;49.448;7.904;2023-07-28T05:55:54;97482.72;;;15.97;98.10
46392;BME280;32098;49.448;7.904;2023-07-28T05:58:21;97482.97;;;16.00;97.94
46392;BME280;32098;49.448;7.904;2023-07-28T06:00:48;97488.06;;;16.02;98.03
46392;BME280;32098;49.448;7.904;2023-07-28T06:03:35;97491.53;;;16.07;97.76
46392;BME280;32098;49.448;7.904;2023-07-28T06:06:12;97497.16;;;16.11;98.13
46392;BME280;32098;49.448;7.904;2023-07-28T06:08:39;97491.50;;;16.12;97.83
46392;BME280;32098;49.448;7.904;2023-07-28T06:11:05;97494.44;;;16.16;97.50
46392;BME280;32098;49.448;7.904;2023-07-28T06:13:32;97501.66;;;16.20;97.08
46392;BME280;32098;49.448;7.904;2023-07-28T06:16:00;97499.47;;;16.23;96.83
46392;BME280;32098;49.448;7.904;2023-07-28T06:18:27;97508.13;;;16.19;96.82
46392;BME280;32098;49.448;7.904;2023-07-28T06:21:04;97508.06;;;16.25;96.71
46392;BME280;32098;49.448;7.904;2023-07-28T06:23:31;97516.47;;;16.23;96.48
46392;BME280;32098;49.448;7.904;2023-07-28T06:25:58;97513.94;;;16.32;96.34
46392;BME280;32098;49.448;7.904;2023-07-28T06:28:24;97516.94;;;16.30;96.37
46392;BME280;32098;49.448;7.904;2023-07-28T06:30:55;97520.94;;;16.33;96.35
46392;BME280;32098;49.448;7.904;2023-07-28T06:33:24;97521.97;;;16.42;96.22
46392;BME280;32098;49.448;7.904;2023-07-28T06:35:50;97519.81;;;16.44;95.91
46392;BME280;32098;49.448;7.904;2023-07-28T06:38:18;97476.34;;;16.16;95.85
46392;BME280;32098;49.448;7.904;2023-07-28T06:40:45;97522.22;;;16.45;95.81
46392;BME280;32098;49.448;7.904;2023-07-28T06:43:12;97529.72;;;16.48;95.54
46392;BME280;32098;49.448;7.904;2023-07-28T06:45:39;97535.59;;;16.55;95.30
46392;BME280;32098;49.448;7.904;2023-07-28T06:48:06;97534.50;;;16.56;94.81
46392;BME280;32098;49.448;7.904;2023-07-28T06:50:33;97538.34;;;16.50;94.38
46392;BME280;32098;49.448;7.904;2023-07-28T06:53:00;97538.78;;;16.57;94.49
46392;BME280;32098;49.448;7.904;2023-07-28T06:55:26;97538.75;;;16.62;94.07
46392;BME280;32098;49.448;7.904;2023-07-28T06:57:53;97544.91;;;16.68;94.11
46392;BME280;32098;49.448;7.904;2023-07-28T07:00:19;97542.44;;;16.71;94.94
46392;BME280;32098;49.448;7.904;2023-07-28T07:02:46;97542.91;;;16.78;94.89
46392;BME280;32098;49.448;7.904;2023-07-28T07:05:13;97553.09;;;16.81;94.76
46392;BME280;32098;49.448;7.904;2023-07-28T07:07:40;97552.53;;;16.84;94.51
46392;BME280;32098;49.448;7.904;2023-07-28T07:10:07;97545.25;;;16.85;94.12
46392;BME280;32098;49.448;7.904;2023-07-28T07:12:35;97529.28;;;16.65;94.23
46392;BME280;32098;49.448;7.904;2023-07-28T07:15:02;97553.41;;;16.80;94.26
46392;BME280;32098;49.448;7.904;2023-07-28T07:17:29;97557.41;;;16.82;94.00
46392;BME280;32098;49.448;7.904;2023-07-28T07:19:55;97560.06;;;16.88;94.22
46392;BME280;32098;49.448;7.904;2023-07-28T07:22:22;97566.44;;;16.97;93.74
46392;BME280;32098;49.448;7.904;2023-07-28T07:24:48;97562.34;;;16.99;93.81
46392;BME280;32098;49.448;7.904;2023-07-28T07:27:15;97568.00;;;17.03;93.94
46392;BME280;32098;49.448;7.904;2023-07-28T07:29:41;97566.59;;;17.05;93.67
46392;BME280;32098;49.448;7.904;2023-07-28T07:32:08;97567.41;;;17.06;93.50
46392;BME280;32098;49.448;7.904;2023-07-28T07:34:36;97564.16;;;17.09;93.27
46392;BME280;32098;49.448;7.904;2023-07-28T07:37:04;97576.53;;;17.10;93.34
46392;BME280;32098;49.448;7.904;2023-07-28T07:39:31;97564.66;;;17.11;93.26
46392;BME280;32098;49.448;7.904;2023-07-28T07:41:58;97574.09;;;17.13;93.60
46392;BME280;32098;49.448;7.904;2023-07-28T07:44:25;97561.97;;;17.11;92.56
46392;BME280;32098;49.448;7.904;2023-07-28T07:46:51;97570.28;;;17.14;92.42
46392;BME280;32098;49.448;7.904;2023-07-28T07:49:18;97576.34;;;17.30;92.80
46392;BME280;32098;49.448;7.904;2023-07-28T07:51:44;97581.53;;;17.45;92.72
46392;BME280;32098;49.448;7.904;2023-07-28T07:54:11;97579.59;;;17.51;92.51
46392;BME280;32098;49.448;7.904;2023-07-28T07:56:42;97571.13;;;17.57;91.39
46392;BME280;32098;49.448;7.904;2023-07-28T07:59:08;97579.47;;;17.61;90.85
46392;BME280;32098;49.448;7.904;2023-07-28T08:01:35;97580.78;;;17.63;90.48
46392;BME280;32098;49.448;7.904;2023-07-28T08:04:02;97589.44;;;17.60;89.98
46392;BME280;32098;49.448;7.904;2023-07-28T08:06:29;97585.59;;;17.66;90.04
46392;BME280;32098;49.448;7.904;2023-07-28T08:08:55;97577.13;;;17.73;89.43
46392;BME280;32098;49.448;7.904;2023-07-28T08:11:23;97584.50;;;17.67;87.62
46392;BME280;32098;49.448;7.904;2023-07-28T08:13:49;97572.31;;;17.70;88.31
46392;BME280;32098;49.448;7.904;2023-07-28T08:16:16;97569.69;;;17.83;88.92
46392;BME280;32098;49.448;7.904;2023-07-28T08:18:43;97585.59;;;18.22;89.46
46392;BME280;32098;49.448;7.904;2023-07-28T08:21:09;97579.84;;;18.61;87.83
46392;BME280;32098;49.448;7.904;2023-07-28T08:23:36;97578.84;;;18.89;84.50
46392;BME280;32098;49.448;7.904;2023-07-28T08:28:30;97584.53;;;19.56;80.91
46392;BME280;32098;49.448;7.904;2023-07-28T08:30:56;97592.50;;;19.66;79.50
46392;BME280;32098;49.448;7.904;2023-07-28T08:33:24;97582.75;;;19.65;79.17
46392;BME280;32098;49.448;7.904;2023-07-28T08:35:51;97590.47;;;19.71;78.21
46392;BME280;32098;49.448;7.904;2023-07-28T08:38:17;97584.31;;;19.93;78.02
46392;BME280;32098;49.448;7.904;2023-07-28T08:40:44;97583.59;;;19.87;77.28
46392;BME280;32098;49.448;7.904;2023-07-28T08:43:11;97585.13;;;19.80;77.00
46392;BME280;32098;49.448;7.904;2023-07-28T08:45:38;97587.69;;;19.49;76.61
46392;BME280;32098;49.448;7.904;2023-07-28T08:48:05;97583.38;;;19.34;77.73
46392;BME280;32098;49.448;7.904;2023-07-28T08:50:31;97597.31;;;19.14;78.34
46392;BME280;32098;49.448;7.904;2023-07-28T08:52:59;97591.19;;;19.09;79.00
46392;BME280;32098;49.448;7.904;2023-07-28T08:55:26;97592.09;;;19.04;79.12
46392;BME280;32098;49.448;7.904;2023-07-28T08:57:53;97595.06;;;18.89;80.03
46392;BME280;32098;49.448;7.904;2023-07-28T09:00:20;97597.31;;;18.82;81.01
46392;BME280;32098;49.448;7.904;2023-07-28T09:02:48;97595.81;;;18.76;81.19
46392;BME280;32098;49.448;7.904;2023-07-28T09:05:19;97605.78;;;18.62;81.86
46392;BME280;32098;49.448;7.904;2023-07-28T09:07:46;97602.66;;;18.55;81.34
46392;BME280;32098;49.448;7.904;2023-07-28T09:10:14;97605.50;;;18.63;82.03
46392;BME280;32098;49.448;7.904;2023-07-28T09:12:45;97604.78;;;18.58;82.03
46392;BME280;32098;49.448;7.904;2023-07-28T09:15:12;97610.59;;;18.65;81.78
46392;BME280;32098;49.448;7.904;2023-07-28T09:17:45;97599.59;;;18.61;82.43
46392;BME280;32098;49.448;7.904;2023-07-28T09:20:13;97613.78;;;18.53;82.69
46392;BME280;32098;49.448;7.904;2023-07-28T09:22:42;97600.84;;;18.50;82.62
46392;BME280;32098;49.448;7.904;2023-07-28T09:25:14;97605.16;;;18.51;82.23
46392;BME280;32098;49.448;7.904;2023-07-28T09:27:41;97598.59;;;18.71;82.79
46392;BME280;32098;49.448;7.904;2023-07-28T09:30:08;97604.69;;;18.95;81.21
46392;BME280;32098;49.448;7.904;2023-07-28T09:35:11;97608.31;;;19.59;77.79
46392;BME280;32098;49.448;7.904;2023-07-28T09:37:46;97608.09;;;19.82;77.07
46392;BME280;32098;49.448;7.904;2023-07-28T09:40:16;97574.41;;;19.61;75.68
46392;BME280;32098;49.448;7.904;2023-07-28T09:42:45;97604.63;;;19.68;75.35
46392;BME280;32098;49.448;7.904;2023-07-28T09:45:19;97607.13;;;19.65;75.71
46392;BME280;32098;49.448;7.904;2023-07-28T09:48:05;97608.91;;;19.42;75.58
46392;BME280;32098;49.448;7.904;2023-07-28T09:50:37;97608.25;;;19.37;76.28
46392;BME280;32098;49.448;7.904;2023-07-28T09:53:04;97624.38;;;19.28;76.55
46392;BME280;32098;49.448;7.904;2023-07-28T09:55:35;97624.69;;;19.26;77.42
46392;BME280;32098;49.448;7.904;2023-07-28T09:58:09;97623.34;;;19.10;77.77
46392;BME280;32098;49.448;7.904;2023-07-28T10:00:36;97622.97;;;19.17;77.80
46392;BME280;32098;49.448;7.904;2023-07-28T10:03:03;97620.88;;;19.14;79.02
46392;BME280;32098;49.448;7.904;2023-07-28T10:05:31;97625.34;;;19.05;79.91
46392;BME280;32098;49.448;7.904;2023-07-28T10:07:58;97625.97;;;19.02;80.56
46392;BME280;32098;49.448;7.904;2023-07-28T10:10:25;97623.72;;;18.90;81.47
46392;BME280;32098;49.448;7.904;2023-07-28T10:12:54;97627.06;;;18.82;81.95
46392;BME280;32098;49.448;7.904;2023-07-28T10:15:29;97638.16;;;18.67;82.38
46392;BME280;32098;49.448;7.904;2023-07-28T10:17:57;97641.88;;;18.71;82.65
46392;BME280;32098;49.448;7.904;2023-07-28T10:20:38;97638.69;;;18.69;83.79
46392;BME280;32098;49.448;7.904;2023-07-28T10:25:40;97640.31;;;18.84;84.51
46392;BME280;32098;49.448;7.904;2023-07-28T10:28:25;97644.38;;;18.86;84.31
46392;BME280;32098;49.448;7.904;2023-07-28T10:30:53;97654.22;;;18.77;84.47
46392;BME280;32098;49.448;7.904;2023-07-28T10:33:37;97649.31;;;18.79;84.62
46392;BME280;32098;49.448;7.904;2023-07-28T10:36:17;97648.28;;;18.75;85.62
46392;BME280;32098;49.448;7.904;2023-07-28T10:38:44;97655.03;;;18.78;85.97
46392;BME280;32098;49.448;7.904;2023-07-28T10:41:14;97648.22;;;18.80;86.26
46392;BME280;32098;49.448;7.904;2023-07-28T10:43:42;97645.38;;;18.90;86.60
46392;BME280;32098;49.448;7.904;2023-07-28T10:46:11;97641.97;;;18.98;85.93
46392;BME280;32098;49.448;7.904;2023-07-28T10:48:43;97648.41;;;19.02;84.51
46392;BME280;32098;49.448;7.904;2023-07-28T10:51:11;97647.63;;;19.15;85.18
46392;BME280;32098;49.448;7.904;2023-07-28T10:53:38;97649.84;;;19.27;85.34
46392;BME280;32098;49.448;7.904;2023-07-28T10:56:05;97649.94;;;19.35;84.98
46392;BME280;32098;49.448;7.904;2023-07-28T10:58:37;97649.63;;;19.37;83.98
46392;BME280;32098;49.448;7.904;2023-07-28T11:01:03;97641.22;;;19.39;84.20
46392;BME280;32098;49.448;7.904;2023-07-28T11:03:30;97650.53;;;19.32;84.20
46392;BME280;32098;49.448;7.904;2023-07-28T11:05:57;97651.25;;;19.24;83.45
46392;BME280;32098;49.448;7.904;2023-07-28T11:08:24;97654.34;;;19.04;82.65
46392;BME280;32098;49.448;7.904;2023-07-28T11:10:51;97656.50;;;18.89;83.42
46392;BME280;32098;49.448;7.904;2023-07-28T11:13:17;97658.84;;;18.77;84.38
46392;BME280;32098;49.448;7.904;2023-07-28T11:16:04;97658.53;;;18.78;85.36
46392;BME280;32098;49.448;7.904;2023-07-28T11:18:31;97652.00;;;18.98;84.95
46392;BME280;32098;49.448;7.904;2023-07-28T11:20:59;97655.03;;;19.10;85.14
46392;BME280;32098;49.448;7.904;2023-07-28T11:23:27;97650.91;;;19.12;84.98
46392;BME280;32098;49.448;7.904;2023-07-28T11:25:54;97659.03;;;19.12;83.51
46392;BME280;32098;49.448;7.904;2023-07-28T11:28:21;97639.06;;;18.95;82.64
46392;BME280;32098;49.448;7.904;2023-07-28T11:30:48;97651.94;;;19.16;83.26
46392;BME280;32098;49.448;7.904;2023-07-28T11:35:44;97649.25;;;19.16;81.91
46392;BME280;32098;49.448;7.904;2023-07-28T11:38:11;97648.84;;;19.09;82.41
46392;BME280;32098;49.448;7.904;2023-07-28T11:40:39;97649.59;;;19.10;82.12
46392;BME280;32098;49.448;7.904;2023-07-28T11:43:06;97654.50;;;18.94;82.06
46392;BME280;32098;49.448;7.904;2023-07-28T11:45:33;97652.59;;;18.95;82.45
46392;BME280;32098;49.448;7.904;2023-07-28T11:48:03;97650.09;;;18.98;82.37
46392;BME280;32098;49.448;7.904;2023-07-28T11:50:35;97651.41;;;19.01;82.43
46392;BME280;32098;49.448;7.904;2023-07-28T11:53:03;97649.69;;;19.05;82.11
46392;BME280;32098;49.448;7.904;2023-07-28T11:55:31;97652.03;;;19.11;81.91
46392;BME280;32098;49.448;7.904;2023-07-28T11:58:00;97653.63;;;19.12;81.61
46392;BME280;32098;49.448;7.904;2023-07-28T12:00:32;97655.03;;;19.10;82.06
46392;BME280;32098;49.448;7.904;2023-07-28T12:03:12;97636.97;;;19.05;80.94
46392;BME280;32098;49.448;7.904;2023-07-28T12:05:42;97646.72;;;19.06;81.40
46392;BME280;32098;49.448;7.904;2023-07-28T12:08:39;97640.63;;;19.14;81.47
46392;BME280;32098;49.448;7.904;2023-07-28T12:13:50;97644.44;;;19.41;81.46
46392;BME280;32098;49.448;7.904;2023-07-28T12:16:39;97645.53;;;19.40;80.29
46392;BME280;32098;49.448;7.904;2023-07-28T12:19:12;97642.53;;;19.41;80.47
46392;BME280;32098;49.448;7.904;2023-07-28T12:21:38;97642.31;;;19.38;81.32
46392;BME280;32098;49.448;7.904;2023-07-28T12:24:05;97645.53;;;19.40;81.20
46392;BME280;32098;49.448;7.904;2023-07-28T12:26:33;97655.47;;;19.30;81.39
46392;BME280;32098;49.448;7.904;2023-07-28T12:29:05;97616.53;;;18.99;82.08
46392;BME280;32098;49.448;7.904;2023-07-28T12:31:35;97662.47;;;19.18;82.65
46392;BME280;32098;49.448;7.904;2023-07-28T12:34:11;97652.63;;;19.08;83.70
46392;BME280;32098;49.448;7.904;2023-07-28T12:36:51;97651.63;;;19.04;83.74
46392;BME280;32098;49.448;7.904;2023-07-28T12:39:20;97655.00;;;18.96;84.07
46392;BME280;32098;49.448;7.904;2023-07-28T12:41:50;97655.66;;;19.07;83.95
46392;BME280;32098;49.448;7.904;2023-07-28T12:44:37;97655.00;;;18.96;84.03
46392;BME280;32098;49.448;7.904;2023-07-28T12:47:06;97647.16;;;18.95;84.13
46392;BME280;32098;49.448;7.904;2023-07-28T12:49:33;97657.22;;;18.94;84.47
46392;BME280;32098;49.448;7.904;2023-07-28T12:52:05;97661.00;;;18.93;85.23
46392;BME280;32098;49.448;7.904;2023-07-28T12:54:45;97663.31;;;19.00;84.67
46392;BME280;32098;49.448;7.904;2023-07-28T12:57:12;97663.03;;;19.01;84.78
46392;BME280;32098;49.448;7.904;2023-07-28T12:59:39;97661.97;;;18.84;84.93
46392;BME280;32098;49.448;7.904;2023-07-28T13:02:09;97667.00;;;18.90;84.28
46392;BME280;32098;49.448;7.904;2023-07-28T13:04:35;97667.00;;;18.90;84.49
46392;BME280;32098;49.448;7.904;2023-07-28T13:07:02;97659.53;;;18.82;84.52
46392;BME280;32098;49.448;7.904;2023-07-28T13:09:32;97673.06;;;18.82;84.89
46392;BME280;32098;49.448;7.904;2023-07-28T13:12:02;97662.94;;;18.74;84.36
46392;BME280;32098;49.448;7.904;2023-07-28T13:14:31;97666.00;;;18.67;84.88
46392;BME280;32098;49.448;7.904;2023-07-28T13:16:58;97671.81;;;18.61;84.75
46392;BME280;32098;49.448;7.904;2023-07-28T13:19:24;97676.72;;;18.59;85.63
46392;BME280;32098;49.448;7.904;2023-07-28T13:21:51;97672.97;;;18.55;85.97